Time;durP1;ratioP1;P1;durP2;ratioP2;P2;SDS_P1;SDS_P2;PMS_P1;PMS_P2;Temp;Humidity;BMP_temperature;BMP_pressure;BME280_temperature;BME280_humidity;BME280_pressure;Samples;Min_cycle;Max_cycle;Signal;HPM_P1;HPM_P2
2022/01/09 00:02:07;;;;;;;2.95;1.85;;;2.80;99.90;;;;;;12389219;28;20450;-86
2022/01/09 00:08:09;;;;;;;2.85;1.73;;;2.80;99.90;;;;;;12390400;28;20054;-86
2022/01/09 00:14:11;;;;;;;4.10;2.05;;;2.80;99.90;;;;;;12395516;28;20070;-86
2022/01/09 00:20:14;;;;;;;3.20;1.80;;;2.80;99.90;;;;;;12392208;28;20045;-85
2022/01/09 00:26:15;;;;;;;3.45;1.83;;;2.70;99.90;;;;;;12389671;28;20172;-87
2022/01/09 00:32:17;;;;;;;3.28;2.00;;;2.70;99.90;;;;;;12411366;28;20375;-86
2022/01/09 00:38:20;;;;;;;3.38;2.15;;;2.70;99.90;;;;;;12394448;28;20050;-86
2022/01/09 00:44:22;;;;;;;2.60;1.90;;;2.60;99.90;;;;;;12395795;28;20072;-86
2022/01/09 00:50:23;;;;;;;3.40;2.08;;;2.80;99.90;;;;;;12387232;28;20395;-83
2022/01/09 00:56:25;;;;;;;3.40;2.15;;;2.70;99.90;;;;;;12393842;28;20050;-86
2022/01/09 01:02:27;;;;;;;3.00;2.10;;;2.60;99.90;;;;;;12388056;28;20042;-86
2022/01/09 01:08:29;;;;;;;2.92;2.00;;;2.60;99.90;;;;;;12382077;28;20077;-85
2022/01/09 01:14:32;;;;;;;3.13;2.20;;;2.60;99.90;;;;;;12382351;28;20172;-87
2022/01/09 01:20:34;;;;;;;3.20;2.25;;;2.50;99.90;;;;;;12386319;28;20104;-86
2022/01/09 01:26:37;;;;;;;4.25;2.22;;;2.50;99.90;;;;;;12385375;28;20054;-86
2022/01/09 01:32:39;;;;;;;3.85;2.35;;;2.50;99.90;;;;;;12386844;28;20518;-87
2022/01/09 01:38:41;;;;;;;4.07;2.53;;;2.40;99.90;;;;;;12379794;28;20054;-88
2022/01/09 01:44:47;;;;;;;2.97;2.05;;;2.40;99.90;;;;;;12379883;28;20445;-88
2022/01/09 01:50:50;;;;;;;3.95;2.70;;;2.40;99.90;;;;;;12370521;28;20828;-86
2022/01/09 01:56:52;;;;;;;3.88;2.60;;;2.30;99.90;;;;;;12376547;28;20056;-87
2022/01/09 02:02:54;;;;;;;4.18;2.78;;;2.30;99.90;;;;;;12381612;28;20402;-87
2022/01/09 02:08:56;;;;;;;3.78;2.55;;;2.30;99.90;;;;;;12381518;28;20136;-86
2022/01/09 02:14:58;;;;;;;4.43;3.47;;;2.40;99.90;;;;;;12384060;28;20165;-86
2022/01/09 02:21:00;;;;;;;3.92;2.40;;;2.40;99.90;;;;;;12381952;28;20054;-88
2022/01/09 02:27:05;;;;;;;4.30;2.50;;;2.40;99.90;;;;;;12392732;28;20056;-88
2022/01/09 02:33:09;;;;;;;3.20;2.30;;;2.40;99.90;;;;;;12392594;28;20470;-89
2022/01/09 02:39:11;;;;;;;3.90;2.60;;;2.40;99.90;;;;;;12376596;28;20043;-87
2022/01/09 02:45:13;;;;;;;3.35;2.50;;;2.50;99.90;;;;;;12386691;28;20088;-88
2022/01/09 02:51:17;;;;;;;3.28;2.38;;;2.40;99.90;;;;;;12386727;28;20124;-89
2022/01/09 02:57:26;;;;;;;6.05;3.00;;;2.40;99.90;;;;;;12376522;28;20081;-87
2022/01/09 03:03:28;;;;;;;4.30;2.97;;;2.40;99.90;;;;;;12384039;28;20217;-87
2022/01/09 03:09:30;;;;;;;3.65;2.60;;;2.40;99.90;;;;;;12383741;28;20557;-86
2022/01/09 03:15:32;;;;;;;4.63;2.30;;;2.50;99.90;;;;;;12380682;28;20069;-86
2022/01/09 03:21:34;;;;;;;3.53;2.50;;;2.50;99.90;;;;;;12380593;28;20070;-87
2022/01/09 03:27:38;;;;;;;3.53;2.50;;;2.50;99.90;;;;;;12393444;28;20140;-88
2022/01/09 03:33:40;;;;;;;2.78;2.00;;;2.60;99.90;;;;;;12402389;28;20888;-88
2022/01/09 03:39:42;;;;;;;3.42;2.00;;;2.60;99.90;;;;;;12399504;28;20599;-88
2022/01/09 03:45:44;;;;;;;3.75;2.33;;;2.70;99.90;;;;;;12378055;28;20054;-88
2022/01/09 03:51:50;;;;;;;2.70;1.80;;;2.70;99.90;;;;;;12386317;28;20053;-88
2022/01/09 03:57:52;;;;;;;2.90;2.13;;;2.60;99.90;;;;;;12395422;28;20058;-87
2022/01/09 04:03:54;;;;;;;3.38;2.20;;;2.60;99.90;;;;;;12385038;28;20045;-90
2022/01/09 04:09:56;;;;;;;3.92;2.00;;;2.60;99.90;;;;;;12391777;28;20064;-87
2022/01/09 04:15:58;;;;;;;2.88;1.60;;;2.40;99.90;;;;;;12404534;28;20081;-88
2022/01/09 04:22:00;;;;;;;2.20;1.48;;;2.40;99.90;;;;;;12387985;28;20038;-92
2022/01/09 04:28:02;;;;;;;2.28;1.33;;;2.30;99.90;;;;;;12399060;28;20515;-90
2022/01/09 04:34:04;;;;;;;2.50;1.42;;;2.20;99.90;;;;;;12415834;28;20046;-88
2022/01/09 04:40:10;;;;;;;1.67;1.13;;;2.20;99.90;;;;;;12390713;28;20509;-90
2022/01/09 04:46:19;;;;;;;1.55;1.17;;;2.20;99.90;;;;;;12371510;28;20124;-87
2022/01/09 04:52:26;;;;;;;2.00;1.20;;;2.20;99.90;;;;;;12393143;28;20502;-87
2022/01/09 04:58:28;;;;;;;1.70;1.08;;;2.20;99.90;;;;;;12381868;28;20136;-89
2022/01/09 05:04:30;;;;;;;1.50;1.05;;;2.20;99.90;;;;;;12397569;28;20045;-87
2022/01/09 05:10:31;;;;;;;2.15;1.20;;;2.10;99.90;;;;;;12388448;28;20045;-87
2022/01/09 05:16:33;;;;;;;1.50;1.00;;;2.10;99.90;;;;;;12385853;28;20110;-87
2022/01/09 05:22:35;;;;;;;2.28;1.60;;;2.10;99.90;;;;;;12382378;28;20785;-87
2022/01/09 05:28:37;;;;;;;2.63;1.90;;;2.10;99.90;;;;;;12384609;28;20121;-87
2022/01/09 05:34:39;;;;;;;3.30;1.80;;;2.10;99.90;;;;;;12398648;28;20062;-87
2022/01/09 05:40:41;;;;;;;2.65;1.95;;;2.10;99.90;;;;;;12381176;28;20049;-87
2022/01/09 05:46:43;;;;;;;3.08;2.30;;;2.10;99.90;;;;;;12385223;28;20053;-89
2022/01/09 05:52:45;;;;;;;3.25;2.33;;;2.10;99.90;;;;;;12386272;28;20112;-87
2022/01/09 05:58:47;;;;;;;3.83;2.72;;;2.10;99.90;;;;;;12381590;28;20054;-90
2022/01/09 06:04:49;;;;;;;4.07;2.78;;;2.10;99.90;;;;;;12387781;28;20131;-87
2022/01/09 06:10:51;;;;;;;4.53;2.55;;;2.10;99.90;;;;;;12398704;28;20058;-87
2022/01/09 06:16:53;;;;;;;4.43;3.15;;;2.00;99.90;;;;;;12388877;28;20165;-87
2022/01/09 06:22:56;;;;;;;5.05;2.75;;;1.90;99.90;;;;;;12394610;28;20050;-91
2022/01/09 06:28:58;;;;;;;4.47;2.85;;;1.70;99.90;;;;;;12397132;28;20104;-87
2022/01/09 06:35:00;;;;;;;4.60;2.90;;;1.50;99.90;;;;;;12383717;28;20060;-86
2022/01/09 06:41:02;;;;;;;5.18;3.60;;;1.50;99.90;;;;;;12393652;28;20414;-87
2022/01/09 06:47:04;;;;;;;5.70;3.67;;;1.50;99.90;;;;;;12393623;28;20632;-90
2022/01/09 06:53:07;;;;;;;6.10;4.15;;;1.60;99.90;;;;;;12379940;28;20053;-87
2022/01/09 06:59:09;;;;;;;7.90;4.75;;;1.80;99.90;;;;;;12385357;28;20057;-89
2022/01/09 07:05:12;;;;;;;8.50;4.97;;;2.10;99.90;;;;;;12373530;28;20176;-87
2022/01/09 07:11:14;;;;;;;10.00;5.30;;;2.20;99.90;;;;;;12397226;28;20042;-87
2022/01/09 07:17:16;;;;;;;7.28;4.43;;;2.40;99.90;;;;;;12394775;28;20049;-86
2022/01/09 07:23:18;;;;;;;8.30;5.43;;;2.60;99.90;;;;;;12384917;28;20038;-90
2022/01/09 07:29:20;;;;;;;7.35;5.28;;;2.60;99.90;;;;;;12383591;28;20834;-87
2022/01/09 07:35:22;;;;;;;9.95;6.15;;;2.70;99.90;;;;;;12385152;28;20045;-88
2022/01/09 07:41:25;;;;;;;8.25;5.45;;;2.80;99.90;;;;;;12380970;28;20464;-88
2022/01/09 07:47:27;;;;;;;10.82;5.25;;;2.80;99.90;;;;;;12396280;28;20119;-88
2022/01/09 07:53:32;;;;;;;10.20;5.05;;;2.80;99.90;;;;;;12407307;28;20065;-87
2022/01/09 07:59:35;;;;;;;11.93;6.03;;;2.90;99.90;;;;;;12385433;28;20058;-89
2022/01/09 08:05:37;;;;;;;14.32;6.93;;;3.00;99.90;;;;;;12375057;28;20047;-89
2022/01/09 08:11:39;;;;;;;16.58;6.60;;;3.20;99.90;;;;;;12399127;28;20495;-89
2022/01/09 08:17:45;;;;;;;14.90;6.00;;;3.40;99.90;;;;;;12378328;28;20054;-89
2022/01/09 08:23:48;;;;;;;18.50;5.50;;;3.70;99.90;;;;;;12394333;28;20133;-87
2022/01/09 08:29:50;;;;;;;19.85;4.40;;;3.90;99.90;;;;;;12381247;28;20131;-89
2022/01/09 08:35:55;;;;;;;32.67;4.88;;;4.20;99.90;;;;;;12387972;28;20045;-88
2022/01/09 08:41:57;;;;;;;;;;;4.40;99.90;;;;;;12373367;28;20149;-87
2022/01/09 08:47:58;;;;;;;19.50;3.95;;;4.50;99.90;;;;;;12388319;28;20025;-87
2022/01/09 08:54:01;;;;;;;24.95;3.70;;;4.70;99.90;;;;;;12359220;28;20144;-89
2022/01/09 09:00:09;;;;;;;28.98;4.05;;;4.70;99.90;;;;;;12377911;28;20042;-89
2022/01/09 09:06:15;;;;;;;20.52;3.50;;;4.80;99.90;;;;;;12376297;28;20088;-88
2022/01/09 09:12:18;;;;;;;18.60;3.13;;;4.80;99.90;;;;;;12388193;28;20530;-88
2022/01/09 09:18:20;;;;;;;14.50;2.78;;;4.80;99.90;;;;;;12388104;28;20730;-87
2022/01/09 09:24:22;;;;;;;26.23;3.50;;;4.90;99.90;;;;;;12387258;28;20113;-89
2022/01/09 09:30:23;;;;;;;20.00;2.63;;;4.90;99.90;;;;;;12384081;28;20121;-88
2022/01/09 09:36:26;;;;;;;14.15;2.80;;;4.90;99.90;;;;;;12386131;28;20049;-88
2022/01/09 09:42:28;;;;;;;10.50;2.03;;;4.90;99.90;;;;;;12381551;28;20203;-87
2022/01/09 09:48:29;;;;;;;10.52;2.42;;;4.90;99.90;;;;;;12388435;28;20204;-85
2022/01/09 09:54:32;;;;;;;14.18;2.08;;;4.90;99.90;;;;;;12384148;28;20609;-88
2022/01/09 10:00:35;;;;;;;13.90;2.30;;;4.90;99.90;;;;;;12385747;28;20057;-87
2022/01/09 10:06:41;;;;;;;12.80;1.80;;;5.00;99.90;;;;;;12384049;28;20061;-88
2022/01/09 10:12:45;;;;;;;14.93;2.15;;;5.00;99.90;;;;;;12384256;28;20057;-87
2022/01/09 10:18:53;;;;;;;11.38;2.70;;;5.00;99.90;;;;;;12392686;28;20050;-85
2022/01/09 10:24:56;;;;;;;8.20;1.85;;;5.00;99.90;;;;;;12384251;28;20045;-87
2022/01/09 10:30:59;;;;;;;12.20;2.33;;;5.00;99.90;;;;;;12395516;28;20105;-85
2022/01/09 10:37:01;;;;;;;11.63;1.90;;;5.10;99.90;;;;;;12377332;28;20550;-85
2022/01/09 10:43:12;;;;;;;14.05;2.65;;;5.10;99.90;;;;;;12392342;28;20119;-87
2022/01/09 10:49:14;;;;;;;18.88;2.53;;;5.20;99.90;;;;;;12401370;28;20084;-87
2022/01/09 10:55:16;;;;;;;12.35;2.38;;;5.20;99.90;;;;;;12419204;28;20094;-86
2022/01/09 11:01:30;;;;;;;14.77;1.98;;;5.20;99.90;;;;;;12413719;28;20084;-87
2022/01/09 11:07:33;;;;;;;14.27;2.90;;;5.20;99.90;;;;;;12411864;28;20053;-87
2022/01/09 11:13:43;;;;;;;10.70;2.45;;;5.20;99.90;;;;;;12406602;28;20141;-86
2022/01/09 11:19:45;;;;;;;10.05;2.22;;;5.10;99.90;;;;;;12399006;28;20137;-88
2022/01/09 11:25:51;;;;;;;9.00;2.10;;;5.10;99.90;;;;;;12414020;28;20046;-88
2022/01/09 11:32:08;;;;;;;11.70;2.40;;;5.20;99.90;;;;;;12408431;28;20510;-86
2022/01/09 11:38:35;;;;;;;12.18;1.98;;;5.00;99.90;;;;;;12390341;28;20050;-87
2022/01/09 11:44:44;;;;;;;11.48;2.85;;;5.00;99.90;;;;;;12388138;28;20050;-87
2022/01/09 11:51:07;;;;;;;15.40;2.90;;;5.00;99.90;;;;;;12399810;28;20046;-86
2022/01/09 11:57:14;;;;;;;13.00;2.03;;;5.00;99.90;;;;;;12383289;28;20082;-88
2022/01/09 12:03:28;;;;;;;10.27;2.00;;;4.90;99.90;;;;;;12400111;28;20088;-87
2022/01/09 12:09:46;;;;;;;9.60;2.13;;;4.90;99.90;;;;;;12390802;28;20058;-88
2022/01/09 12:15:48;;;;;;;12.52;2.22;;;4.80;99.90;;;;;;12384167;28;20069;-89
2022/01/09 12:21:50;;;;;;;16.63;3.10;;;4.90;99.90;;;;;;12400340;28;20076;-88
2022/01/09 12:28:14;;;;;;;15.82;2.92;;;4.90;99.90;;;;;;12386731;28;20042;-88
2022/01/09 12:34:16;;;;;;;16.73;3.17;;;5.00;99.90;;;;;;12392410;28;20046;-86
2022/01/09 12:40:20;;;;;;;11.82;2.63;;;5.00;99.90;;;;;;12399326;28;20054;-88
2022/01/09 12:46:23;;;;;;;21.07;3.03;;;5.00;99.90;;;;;;12384614;28;20582;-87
2022/01/09 12:52:24;;;;;;;12.88;2.53;;;5.00;99.90;;;;;;12386065;28;20041;-85
2022/01/09 12:58:29;;;;;;;10.57;2.33;;;4.90;99.90;;;;;;12395714;28;20109;-86
2022/01/09 13:04:34;;;;;;;13.52;2.65;;;4.90;99.90;;;;;;12383773;28;20049;-85
2022/01/09 13:10:36;;;;;;;14.23;2.50;;;5.00;99.90;;;;;;12381372;28;20058;-86
2022/01/09 13:16:39;;;;;;;9.32;2.35;;;5.00;99.90;;;;;;12392176;28;20054;-87
2022/01/09 13:22:41;;;;;;;17.55;3.03;;;5.00;99.90;;;;;;12403487;28;20128;-88
2022/01/09 13:28:49;;;;;;;13.77;2.65;;;5.00;99.90;;;;;;12388159;28;20816;-86
2022/01/09 13:34:54;;;;;;;10.00;2.80;;;5.00;99.90;;;;;;12375971;28;20066;-86
2022/01/09 13:40:57;;;;;;;13.95;2.60;;;4.90;99.90;;;;;;12376486;28;20061;-87
2022/01/09 13:47:07;;;;;;;11.52;2.28;;;5.00;99.90;;;;;;12393516;28;20058;-87
2022/01/09 13:53:13;;;;;;;16.10;2.80;;;5.00;99.90;;;;;;12391833;28;20065;-87
2022/01/09 13:59:15;;;;;;;11.10;2.83;;;5.00;99.90;;;;;;12380733;28;20054;-87
2022/01/09 14:05:20;;;;;;;18.83;2.75;;;5.00;99.90;;;;;;12396279;28;20046;-87
2022/01/09 14:11:22;;;;;;;12.73;3.55;;;5.00;99.90;;;;;;12395754;28;20046;-88
2022/01/09 14:17:32;;;;;;;17.40;2.38;;;5.00;99.90;;;;;;12372023;28;20486;-88
2022/01/09 14:23:39;;;;;;;15.85;3.20;;;5.00;99.90;;;;;;12381036;28;20045;-87
2022/01/09 14:29:40;;;;;;;12.93;2.33;;;5.00;99.90;;;;;;12377485;28;20557;-87
2022/01/09 14:35:47;;;;;;;10.05;2.38;;;5.00;99.90;;;;;;12384135;28;20616;-87
2022/01/09 14:41:50;;;;;;;17.15;2.70;;;4.90;99.90;;;;;;12385305;28;20050;-87
2022/01/09 14:47:52;;;;;;;11.52;2.38;;;4.90;99.90;;;;;;12379625;28;20068;-88
2022/01/09 14:53:55;;;;;;;12.77;2.70;;;4.90;99.90;;;;;;12383030;28;20502;-87
2022/01/09 14:59:57;;;;;;;10.65;2.45;;;5.00;99.90;;;;;;12375034;28;20176;-86
2022/01/09 15:05:59;;;;;;;11.63;2.70;;;4.90;99.90;;;;;;12371378;28;20054;-86
2022/01/09 15:12:01;;;;;;;11.23;2.50;;;4.90;99.90;;;;;;12387982;28;20046;-87
2022/01/09 15:18:07;;;;;;;13.10;2.88;;;4.90;99.90;;;;;;12376627;28;20072;-87
2022/01/09 15:24:09;;;;;;;10.85;2.30;;;4.80;99.90;;;;;;12386635;28;20047;-86
2022/01/09 15:30:11;;;;;;;15.02;2.75;;;4.80;99.90;;;;;;12379057;28;20054;-87
2022/01/09 15:36:13;;;;;;;10.07;2.80;;;4.80;99.90;;;;;;12375820;28;20069;-85
2022/01/09 15:42:15;;;;;;;12.73;2.80;;;4.90;99.90;;;;;;12395056;28;20045;-85
2022/01/09 15:48:17;;;;;;;12.32;2.38;;;4.80;99.90;;;;;;12386044;28;20050;-86
2022/01/09 15:54:19;;;;;;;12.23;2.60;;;4.70;99.90;;;;;;12399910;28;20073;-85
2022/01/09 16:00:21;;;;;;;13.05;2.80;;;4.60;99.90;;;;;;12383922;28;20089;-87
2022/01/09 16:06:23;;;;;;;13.82;2.42;;;4.60;99.90;;;;;;12385014;28;20111;-86
2022/01/09 16:12:25;;;;;;;13.73;2.35;;;4.70;99.90;;;;;;12388027;28;20426;-87
2022/01/09 16:18:27;;;;;;;7.50;2.30;;;4.60;99.90;;;;;;12396434;28;20068;-86
2022/01/09 16:24:29;;;;;;;11.30;2.92;;;4.60;99.90;;;;;;12379722;28;20049;-86
2022/01/09 16:30:31;;;;;;;8.70;1.85;;;4.60;99.90;;;;;;12398704;28;20115;-85
2022/01/09 16:36:33;;;;;;;9.88;1.95;;;4.70;99.90;;;;;;12399877;28;20476;-87
2022/01/09 16:42:35;;;;;;;9.98;2.00;;;4.70;99.90;;;;;;12386097;28;20112;-86
2022/01/09 16:48:37;;;;;;;11.07;2.28;;;4.60;99.90;;;;;;12388253;28;20050;-85
2022/01/09 16:54:39;;;;;;;14.63;2.08;;;4.50;99.90;;;;;;12386200;28;20066;-86
2022/01/09 17:00:41;;;;;;;12.93;3.42;;;4.50;99.90;;;;;;12377719;28;20054;-86
2022/01/09 17:06:43;;;;;;;8.35;2.17;;;4.50;99.90;;;;;;12387110;28;20056;-87
2022/01/09 17:12:47;;;;;;;10.13;2.10;;;4.60;99.90;;;;;;12441705;28;20050;-87
2022/01/09 17:18:50;;;;;;;9.52;2.35;;;4.50;99.90;;;;;;12420804;28;20049;-87
2022/01/09 17:24:52;;;;;;;10.13;2.05;;;4.50;99.90;;;;;;12415997;28;20053;-86
2022/01/09 17:30:55;;;;;;;10.18;3.00;;;4.40;99.90;;;;;;12412997;28;20056;-87
2022/01/09 17:36:57;;;;;;;7.68;2.55;;;4.40;99.90;;;;;;12411895;28;20419;-86
2022/01/09 17:42:59;;;;;;;6.70;2.10;;;4.40;99.90;;;;;;12424947;28;20050;-86
2022/01/09 17:49:01;;;;;;;8.40;2.60;;;4.50;99.90;;;;;;12417742;28;20089;-86
2022/01/09 17:55:03;;;;;;;12.90;2.58;;;4.50;99.90;;;;;;12384324;28;20135;-87
2022/01/09 18:01:05;;;;;;;10.13;2.80;;;4.50;99.90;;;;;;12383856;28;20112;-86
2022/01/09 18:07:07;;;;;;;9.85;2.67;;;4.50;99.90;;;;;;12396891;28;20061;-86
2022/01/09 18:13:10;;;;;;;14.73;3.75;;;4.40;99.90;;;;;;12400862;28;20073;-86
2022/01/09 18:19:13;;;;;;;8.43;3.22;;;4.30;99.90;;;;;;12390558;28;20050;-86
2022/01/09 18:25:15;;;;;;;10.52;3.58;;;4.30;99.90;;;;;;12375352;28;20092;-85
2022/01/09 18:31:18;;;;;;;11.35;3.90;;;4.20;99.90;;;;;;12399284;28;20477;-86
2022/01/09 18:37:22;;;;;;;10.82;3.92;;;4.20;99.90;;;;;;12383552;28;20128;-85
2022/01/09 18:43:26;;;;;;;13.07;4.43;;;4.20;99.90;;;;;;12380579;28;20583;-86
2022/01/09 18:49:28;;;;;;;9.68;4.22;;;4.10;99.90;;;;;;12383884;28;20050;-85
2022/01/09 18:55:30;;;;;;;12.77;4.82;;;4.10;99.90;;;;;;12396536;28;20133;-86
2022/01/09 19:01:32;;;;;;;10.82;4.32;;;4.00;99.90;;;;;;12405470;28;20045;-86
2022/01/09 19:07:35;;;;;;;13.55;5.00;;;4.00;99.90;;;;;;12416669;28;20794;-86
2022/01/09 19:13:36;;;;;;;14.88;4.50;;;4.00;99.90;;;;;;12409168;28;20074;-85
2022/01/09 19:19:40;;;;;;;13.25;5.05;;;3.90;99.90;;;;;;12397708;28;20158;-85
2022/01/09 19:25:43;;;;;;;14.85;4.20;;;3.90;99.90;;;;;;12391640;28;20489;-86
2022/01/09 19:31:45;;;;;;;13.20;5.82;;;3.90;99.90;;;;;;12405591;28;20065;-85
2022/01/09 19:37:47;;;;;;;14.38;5.25;;;3.90;99.90;;;;;;12390121;28;20046;-86
2022/01/09 19:43:49;;;;;;;12.90;4.85;;;3.80;99.90;;;;;;12383288;28;20046;-86
2022/01/09 19:49:51;;;;;;;12.52;4.90;;;3.90;99.90;;;;;;12389004;28;20057;-86
2022/01/09 19:55:53;;;;;;;12.93;4.95;;;3.90;99.90;;;;;;12397131;28;20062;-86
2022/01/09 20:01:55;;;;;;;16.63;5.50;;;3.90;99.90;;;;;;12390439;28;20082;-87
2022/01/09 20:07:57;;;;;;;14.18;4.90;;;3.90;99.90;;;;;;12382693;28;20050;-85
2022/01/09 20:14:00;;;;;;;13.32;5.20;;;3.90;99.90;;;;;;12382356;28;20076;-87
2022/01/09 20:20:04;;;;;;;15.75;4.93;;;3.90;99.90;;;;;;12385271;28;20054;-87
2022/01/09 20:26:08;;;;;;;13.90;5.37;;;3.80;99.90;;;;;;12380313;28;21141;-86
2022/01/09 20:32:10;;;;;;;;;;;3.80;99.90;;;;;;12389232;28;20125;-87
2022/01/09 20:38:12;;;;;;;16.30;5.47;;;3.60;99.90;;;;;;12392902;28;19941;-85
2022/01/09 20:44:17;;;;;;;15.65;5.13;;;3.60;99.90;;;;;;12405654;28;20041;-87
2022/01/09 20:50:20;;;;;;;18.73;5.55;;;3.60;99.90;;;;;;12389656;28;20131;-85
2022/01/09 20:56:22;;;;;;;23.80;5.68;;;3.40;99.90;;;;;;12381748;28;20136;-85
2022/01/09 21:02:23;;;;;;;16.83;5.68;;;3.40;99.90;;;;;;12384461;28;20058;-87
2022/01/09 21:08:26;;;;;;;13.77;5.97;;;3.30;99.90;;;;;;12386190;28;20045;-87
2022/01/09 21:14:27;;;;;;;15.43;6.03;;;3.50;99.90;;;;;;12380097;28;20074;-87
2022/01/09 21:20:29;;;;;;;19.23;6.32;;;3.50;99.90;;;;;;12385098;28;20565;-85
2022/01/09 21:26:31;;;;;;;15.45;6.30;;;3.30;99.90;;;;;;12396028;28;20057;-87
2022/01/09 21:32:33;;;;;;;17.95;6.47;;;3.30;99.90;;;;;;12399282;28;20096;-86
2022/01/09 21:38:35;;;;;;;16.98;7.38;;;3.20;99.90;;;;;;12395596;28;20065;-86
2022/01/09 21:44:39;;;;;;;19.45;7.50;;;3.10;99.90;;;;;;12385407;28;20579;-86
2022/01/09 21:50:41;;;;;;;26.97;8.33;;;3.20;99.90;;;;;;12378245;28;20456;-86
2022/01/09 21:56:45;;;;;;;15.80;7.00;;;3.30;99.90;;;;;;12382840;28;20127;-86
2022/01/09 22:02:48;;;;;;;19.08;8.00;;;3.20;99.90;;;;;;12385746;28;20046;-86
2022/01/09 22:08:50;;;;;;;21.67;8.20;;;3.20;99.90;;;;;;12383374;28;20141;-85
2022/01/09 22:14:52;;;;;;;16.67;7.95;;;3.30;99.90;;;;;;12382527;28;20115;-86
2022/01/09 22:20:55;;;;;;;23.35;9.00;;;3.20;99.90;;;;;;12393619;28;20057;-86
2022/01/09 22:26:57;;;;;;;20.52;8.82;;;3.20;99.90;;;;;;12396231;28;20062;-86
2022/01/09 22:33:00;;;;;;;24.25;9.40;;;3.30;99.90;;;;;;12395687;28;20119;-86
2022/01/09 22:39:05;;;;;;;23.98;10.43;;;3.40;99.90;;;;;;12420847;28;20053;-87
2022/01/09 22:45:07;;;;;;;20.80;10.25;;;3.30;99.90;;;;;;12438063;28;20034;-85
2022/01/09 22:51:09;;;;;;;23.77;10.52;;;3.40;99.90;;;;;;12441284;28;20034;-86
2022/01/09 22:57:11;;;;;;;21.58;10.38;;;3.40;99.90;;;;;;12439375;28;20081;-86
2022/01/09 23:03:14;;;;;;;32.30;11.57;;;3.40;99.90;;;;;;12413459;28;20129;-85
2022/01/09 23:09:16;;;;;;;26.23;11.95;;;3.50;99.90;;;;;;12417103;28;20469;-86
2022/01/09 23:15:18;;;;;;;25.73;11.35;;;3.40;99.90;;;;;;12402985;28;20100;-86
2022/01/09 23:21:21;;;;;;;28.65;12.85;;;3.50;99.90;;;;;;12395583;28;20080;-85
2022/01/09 23:27:23;;;;;;;27.27;12.18;;;3.50;99.90;;;;;;12393562;28;20123;-85
2022/01/09 23:33:25;;;;;;;25.58;11.43;;;3.60;99.90;;;;;;12395957;28;20133;-86
2022/01/09 23:39:27;;;;;;;28.23;11.38;;;3.50;99.90;;;;;;12400050;28;20475;-85
2022/01/09 23:45:29;;;;;;;26.92;11.93;;;3.50;99.90;;;;;;12404361;28;20103;-87
2022/01/09 23:51:31;;;;;;;30.45;11.65;;;3.60;99.90;;;;;;12387148;28;20038;-85
2022/01/09 23:57:35;;;;;;;32.58;11.95;;;3.60;99.90;;;;;;12393456;28;20054;-86
